Time;durP1;ratioP1;P1;durP2;ratioP2;P2;SDS_P1;SDS_P2;PMS_P1;PMS_P2;Temp;Humidity;BMP_temperature;BMP_pressure;BME280_temperature;BME280_humidity;BME280_pressure;Samples;Min_cycle;Max_cycle;Signal;HPM_P1;HPM_P2
2022/08/15 00:01:14;;;;;;;3.10;2.47;;;23.60;51.80;;;;;;4949869;28;20031;-65
2022/08/15 00:03:46;;;;;;;2.63;2.35;;;23.50;52.60;;;;;;4947238;28;20040;-66
2022/08/15 00:06:15;;;;;;;3.78;2.40;;;23.50;52.10;;;;;;4951237;28;20047;-65
2022/08/15 00:08:49;;;;;;;6.80;2.72;;;23.50;52.00;;;;;;4950989;28;20506;-65
2022/08/15 00:11:18;;;;;;;3.23;2.53;;;23.50;52.10;;;;;;4948036;28;20046;-65
2022/08/15 00:13:54;;;;;;;3.92;2.63;;;23.50;52.00;;;;;;4954193;28;20047;-65
2022/08/15 00:16:20;;;;;;;3.85;2.40;;;23.40;52.00;;;;;;4953222;28;20047;-65
2022/08/15 00:18:48;;;;;;;5.43;2.58;;;23.50;52.00;;;;;;4949408;28;20042;-66
2022/08/15 00:21:16;;;;;;;3.90;2.58;;;23.50;52.00;;;;;;4956639;28;20211;-64
2022/08/15 00:23:43;;;;;;;2.78;2.47;;;23.40;52.00;;;;;;4953446;28;20039;-66
2022/08/15 00:26:11;;;;;;;4.35;2.38;;;23.40;52.10;;;;;;4954159;28;20071;-65
2022/08/15 00:28:37;;;;;;;3.15;2.67;;;23.40;52.00;;;;;;4950810;28;20619;-65
2022/08/15 00:31:08;;;;;;;4.22;2.47;;;23.40;52.00;;;;;;4955325;28;20051;-66
2022/08/15 00:33:34;;;;;;;3.15;2.60;;;23.40;53.00;;;;;;4954161;28;20046;-65
2022/08/15 00:36:00;;;;;;;4.85;2.88;;;23.40;52.20;;;;;;4954995;28;20634;-65
2022/08/15 00:38:28;;;;;;;3.88;2.80;;;23.40;52.30;;;;;;4954930;28;20614;-64
2022/08/15 00:44:00;;;;;;;4.05;2.70;;;23.40;52.60;;;;;;4955383;28;20457;-65
2022/08/15 00:46:28;;;;;;;4.03;2.50;;;23.40;52.20;;;;;;4953779;28;20526;-64
2022/08/15 00:48:55;;;;;;;4.03;2.72;;;23.40;52.40;;;;;;4952756;28;20070;-65
2022/08/15 00:51:43;;;;;;;2.60;2.40;;;23.40;52.40;;;;;;4954113;28;20038;-65
2022/08/15 00:54:22;;;;;;;2.70;2.50;;;23.40;52.80;;;;;;4954741;28;20069;-65
2022/08/15 00:56:55;;;;;;;4.07;2.35;;;23.40;52.70;;;;;;4951369;28;20039;-64
2022/08/15 00:59:27;;;;;;;2.63;2.42;;;23.30;52.50;;;;;;4954786;28;20046;-65
2022/08/15 01:01:55;;;;;;;4.22;2.55;;;23.40;52.60;;;;;;4944636;28;20038;-65
2022/08/15 01:04:21;;;;;;;2.67;2.38;;;23.40;52.40;;;;;;4953322;28;20098;-66
2022/08/15 01:06:48;;;;;;;3.30;2.20;;;23.40;52.40;;;;;;4951877;28;20063;-65
2022/08/15 01:09:16;;;;;;;3.47;2.47;;;23.40;52.30;;;;;;4952547;28;20039;-65
2022/08/15 01:11:57;;;;;;;2.30;2.10;;;23.30;52.30;;;;;;4947791;28;20035;-64
2022/08/15 01:14:24;;;;;;;4.15;2.53;;;23.30;52.60;;;;;;4951606;28;20137;-65
2022/08/15 01:16:51;;;;;;;4.53;2.67;;;23.30;52.30;;;;;;4949248;28;20407;-65
2022/08/15 01:19:28;;;;;;;2.72;2.20;;;23.30;52.40;;;;;;4953238;28;20085;-65
2022/08/15 01:22:12;;;;;;;3.20;2.22;;;23.30;52.50;;;;;;4949831;28;20077;-66
2022/08/15 01:25:03;;;;;;;6.25;2.47;;;23.30;52.70;;;;;;4954103;28;20043;-64
2022/08/15 01:27:44;;;;;;;3.63;2.38;;;23.30;52.80;;;;;;4951555;28;20035;-65
2022/08/15 01:30:15;;;;;;;2.35;2.10;;;23.20;52.80;;;;;;4948017;28;20118;-65
2022/08/15 01:32:42;;;;;;;3.63;2.20;;;23.20;52.70;;;;;;4949346;28;20100;-65
2022/08/15 01:35:09;;;;;;;2.30;2.10;;;23.20;52.60;;;;;;4953039;28;20032;-65
2022/08/15 01:37:38;;;;;;;6.28;2.50;;;23.20;52.80;;;;;;4951450;28;20081;-65
2022/08/15 01:40:28;;;;;;;4.22;2.45;;;23.10;52.80;;;;;;4950030;28;20027;-65
2022/08/15 01:42:55;;;;;;;3.25;2.30;;;23.10;53.00;;;;;;4945773;28;20046;-64
2022/08/15 01:45:26;;;;;;;3.10;2.38;;;23.10;52.90;;;;;;4952496;28;20127;-64
2022/08/15 01:48:00;;;;;;;3.05;2.25;;;23.10;53.00;;;;;;4949443;28;20031;-65
2022/08/15 01:50:28;;;;;;;;;;;23.00;52.90;;;;;;4953471;28;20042;-65
2022/08/15 01:53:02;;;;;;;4.28;2.10;;;23.10;52.70;;;;;;4947888;28;20424;-65
2022/08/15 01:55:38;;;;;;;4.65;2.55;;;23.00;52.80;;;;;;4951375;28;20054;-65
2022/08/15 01:58:06;;;;;;;3.10;1.95;;;23.00;53.20;;;;;;4948782;28;20063;-65
2022/08/15 02:00:32;;;;;;;3.10;2.00;;;23.00;53.30;;;;;;4950962;28;20035;-65
2022/08/15 02:02:59;;;;;;;2.30;2.10;;;22.90;53.30;;;;;;4947289;28;20078;-64
2022/08/15 02:05:25;;;;;;;2.40;2.10;;;22.90;53.50;;;;;;4947629;28;20073;-65
2022/08/15 02:07:51;;;;;;;3.17;2.30;;;22.90;53.60;;;;;;4950207;28;20075;-65
2022/08/15 02:10:17;;;;;;;2.33;1.98;;;22.90;53.70;;;;;;4952397;28;20046;-66
2022/08/15 02:12:42;;;;;;;4.50;2.25;;;22.90;53.80;;;;;;4948038;28;20537;-64
2022/08/15 02:15:15;;;;;;;2.20;1.95;;;22.90;53.80;;;;;;4951654;28;20055;-64
2022/08/15 02:17:43;;;;;;;2.42;2.10;;;22.90;53.90;;;;;;4953013;28;20035;-64
2022/08/15 02:20:11;;;;;;;2.55;2.28;;;22.90;53.90;;;;;;4953450;28;20089;-65
2022/08/15 02:22:36;;;;;;;3.47;1.85;;;22.90;53.90;;;;;;4947520;28;20070;-64
2022/08/15 02:25:04;;;;;;;3.38;1.98;;;22.90;53.90;;;;;;4950214;28;20431;-65
2022/08/15 02:27:32;;;;;;;5.50;2.35;;;22.90;53.90;;;;;;4949456;28;20031;-64
2022/08/15 02:30:00;;;;;;;2.92;1.90;;;22.90;53.90;;;;;;4948900;28;20046;-65
2022/08/15 02:32:26;;;;;;;2.35;1.92;;;22.90;53.90;;;;;;4948674;28;20042;-64
2022/08/15 02:34:52;;;;;;;2.05;1.95;;;22.90;53.90;;;;;;4948914;28;20039;-65
2022/08/15 02:37:18;;;;;;;1.83;1.73;;;22.90;54.60;;;;;;4953833;28;20058;-65
2022/08/15 02:39:46;;;;;;;3.03;2.00;;;22.90;54.00;;;;;;4952216;28;20414;-64
2022/08/15 02:42:12;;;;;;;2.35;1.88;;;22.90;54.10;;;;;;4949424;28;20077;-65
2022/08/15 02:44:38;;;;;;;2.55;2.00;;;22.90;54.10;;;;;;4951602;28;20094;-64
2022/08/15 02:47:05;;;;;;;2.20;1.95;;;22.90;54.10;;;;;;4946993;28;20043;-64
2022/08/15 02:49:33;;;;;;;1.98;1.80;;;22.80;54.10;;;;;;4952329;28;20041;-63
2022/08/15 02:52:00;;;;;;;4.43;2.10;;;22.90;54.40;;;;;;4949922;28;20321;-64
2022/08/15 02:54:27;;;;;;;2.03;1.80;;;22.80;54.30;;;;;;4951832;28;20399;-64
2022/08/15 02:56:54;;;;;;;3.25;2.00;;;22.80;54.40;;;;;;4952701;28;20035;-64
2022/08/15 02:59:19;;;;;;;1.88;1.77;;;22.80;54.60;;;;;;4954841;28;20047;-65
2022/08/15 03:01:45;;;;;;;3.63;2.13;;;22.70;54.80;;;;;;4950882;28;20039;-64
2022/08/15 03:04:14;;;;;;;3.33;1.90;;;22.80;55.00;;;;;;4950619;28;20130;-65
2022/08/15 03:06:42;;;;;;;3.08;1.88;;;22.70;55.20;;;;;;4953787;28;20071;-65
2022/08/15 03:09:08;;;;;;;3.20;1.98;;;22.70;55.30;;;;;;4953576;28;20043;-65
2022/08/15 03:11:39;;;;;;;2.38;1.88;;;22.70;55.40;;;;;;4947944;28;20586;-64
2022/08/15 03:14:09;;;;;;;1.88;1.60;;;22.60;55.70;;;;;;4952005;28;20219;-64
2022/08/15 03:16:40;;;;;;;2.13;1.90;;;22.60;56.00;;;;;;4951030;28;20038;-64
2022/08/15 03:19:06;;;;;;;1.85;1.45;;;22.60;56.00;;;;;;4951149;28;20035;-64
2022/08/15 03:21:32;;;;;;;2.83;1.80;;;22.60;55.90;;;;;;4951147;28;20046;-64
2022/08/15 03:23:58;;;;;;;2.10;1.55;;;22.60;56.00;;;;;;4952255;28;20046;-64
2022/08/15 03:26:25;;;;;;;1.95;1.55;;;22.60;56.00;;;;;;4949504;28;20510;-64
2022/08/15 03:28:51;;;;;;;1.90;1.63;;;22.50;56.00;;;;;;4951801;28;20160;-64
2022/08/15 03:31:17;;;;;;;4.22;1.80;;;22.50;56.10;;;;;;4950938;28;20038;-65
2022/08/15 03:33:46;;;;;;;2.80;1.88;;;22.50;56.20;;;;;;4953112;28;20050;-64
2022/08/15 03:36:18;;;;;;;2.47;1.80;;;22.50;56.40;;;;;;4950110;28;20515;-64
2022/08/15 03:38:45;;;;;;;2.97;1.90;;;22.50;56.60;;;;;;4950684;28;20192;-64
2022/08/15 03:41:13;;;;;;;3.92;2.00;;;22.40;56.60;;;;;;4953058;28;20047;-64
2022/08/15 03:43:39;;;;;;;4.05;1.90;;;22.40;56.90;;;;;;4954159;28;20039;-64
2022/08/15 03:46:08;;;;;;;3.63;1.80;;;22.40;57.70;;;;;;4953481;28;20034;-64
2022/08/15 03:48:37;;;;;;;2.38;1.70;;;22.40;57.40;;;;;;4954244;28;20046;-65
2022/08/15 03:51:04;;;;;;;2.28;1.65;;;22.40;57.50;;;;;;4953131;28;20093;-64
2022/08/15 03:53:35;;;;;;;5.43;1.80;;;22.40;57.90;;;;;;4954925;28;20047;-64
2022/08/15 03:56:03;;;;;;;2.03;1.70;;;22.40;58.30;;;;;;4950813;28;20070;-64
2022/08/15 03:58:30;;;;;;;3.83;2.30;;;22.30;58.60;;;;;;4952832;28;20406;-64
2022/08/15 04:00:58;;;;;;;2.38;1.90;;;22.30;58.80;;;;;;4951984;28;20555;-63
2022/08/15 04:03:27;;;;;;;3.17;1.90;;;22.20;59.10;;;;;;4955281;28;20046;-63
2022/08/15 04:05:57;;;;;;;2.35;1.80;;;22.20;59.80;;;;;;4951057;28;20061;-63
2022/08/15 04:08:24;;;;;;;3.97;2.00;;;22.10;60.50;;;;;;4956596;28;20047;-63
2022/08/15 04:10:51;;;;;;;2.17;2.08;;;22.00;60.70;;;;;;4950461;28;20043;-62
2022/08/15 04:13:19;;;;;;;2.40;2.10;;;22.00;61.60;;;;;;4949844;28;20069;-63
2022/08/15 04:15:45;;;;;;;3.28;2.03;;;21.90;62.40;;;;;;4952153;28;20118;-62
2022/08/15 04:18:11;;;;;;;3.88;2.40;;;21.80;62.50;;;;;;4953840;28;20126;-62
2022/08/15 04:20:37;;;;;;;4.25;2.13;;;21.70;63.30;;;;;;4954207;28;20174;-60
2022/08/15 04:23:04;;;;;;;4.90;2.58;;;21.60;63.80;;;;;;4952782;28;20113;-60
2022/08/15 04:25:33;;;;;;;2.78;1.92;;;21.60;64.40;;;;;;4951904;28;20031;-62
2022/08/15 04:28:00;;;;;;;3.08;2.30;;;21.50;64.90;;;;;;4953143;28;20035;-62
2022/08/15 04:30:41;;;;;;;2.63;2.15;;;21.40;65.20;;;;;;4950861;28;20039;-62
2022/08/15 04:33:09;;;;;;;3.53;1.95;;;21.40;66.50;;;;;;4952051;28;20527;-62
2022/08/15 04:35:36;;;;;;;3.13;2.28;;;21.30;66.00;;;;;;4954360;28;20047;-62
2022/08/15 04:38:02;;;;;;;3.08;2.47;;;21.20;65.90;;;;;;4950768;28;20050;-61
2022/08/15 04:40:28;;;;;;;2.55;2.35;;;21.20;66.90;;;;;;4951237;28;20307;-63
2022/08/15 04:42:54;;;;;;;2.75;2.30;;;21.10;66.30;;;;;;4949871;28;20043;-62
2022/08/15 04:45:22;;;;;;;3.95;2.50;;;21.10;66.60;;;;;;4951567;28;20058;-62
2022/08/15 04:47:49;;;;;;;2.65;2.45;;;21.10;67.10;;;;;;4953665;28;20402;-62
2022/08/15 04:50:14;;;;;;;3.58;2.55;;;21.00;67.10;;;;;;4953414;28;20040;-62
2022/08/15 04:52:51;;;;;;;2.88;2.63;;;21.00;67.80;;;;;;4951799;28;20375;-62
2022/08/15 04:55:19;;;;;;;4.53;3.00;;;20.90;68.80;;;;;;4950099;28;20495;-61
2022/08/15 04:57:45;;;;;;;3.08;2.22;;;20.90;67.80;;;;;;4950920;28;20086;-61
2022/08/15 05:00:14;;;;;;;6.18;2.33;;;20.80;68.00;;;;;;4950326;28;20063;-61
2022/08/15 05:02:40;;;;;;;3.85;2.60;;;20.80;68.30;;;;;;4951661;28;20038;-61
2022/08/15 05:05:09;;;;;;;4.47;2.85;;;20.80;68.50;;;;;;4950253;28;20039;-62
2022/08/15 05:07:35;;;;;;;2.92;2.70;;;20.80;69.20;;;;;;4952462;28;20035;-63
2022/08/15 05:10:02;;;;;;;3.78;3.10;;;20.70;69.00;;;;;;4952509;28;20285;-63
2022/08/15 05:12:29;;;;;;;4.55;3.17;;;20.70;69.30;;;;;;4950921;28;20031;-62
2022/08/15 05:14:56;;;;;;;4.40;3.03;;;20.70;69.60;;;;;;4949258;28;20425;-61
2022/08/15 05:17:22;;;;;;;5.55;2.88;;;20.70;70.10;;;;;;4952023;28;20043;-61
2022/08/15 05:19:48;;;;;;;4.55;3.20;;;20.60;69.70;;;;;;4954398;28;20043;-61
2022/08/15 05:22:16;;;;;;;5.50;3.05;;;20.70;70.00;;;;;;4949528;28;20043;-62
2022/08/15 05:24:42;;;;;;;4.60;3.20;;;20.60;70.50;;;;;;4951883;28;20058;-60
2022/08/15 05:27:08;;;;;;;4.07;3.33;;;20.60;70.20;;;;;;4950509;28;20474;-62
2022/08/15 05:29:33;;;;;;;5.05;3.42;;;20.70;70.30;;;;;;4952535;28;20041;-62
2022/08/15 05:31:59;;;;;;;4.35;3.08;;;20.60;70.60;;;;;;4948860;28;20032;-63
2022/08/15 05:34:27;;;;;;;5.00;3.28;;;20.60;70.70;;;;;;4954029;28;20414;-62
2022/08/15 05:36:53;;;;;;;3.67;3.35;;;20.60;71.10;;;;;;4954988;28;20138;-62
2022/08/15 05:39:25;;;;;;;3.58;3.28;;;20.60;71.30;;;;;;4935465;28;20544;-60
2022/08/15 05:42:12;;;;;;;3.55;3.08;;;20.60;72.20;;;;;;4955060;28;20049;-63
2022/08/15 05:44:46;;;;;;;3.67;2.80;;;20.60;73.40;;;;;;4953308;28;20143;-62
2022/08/15 05:47:30;;;;;;;4.05;3.45;;;20.50;71.30;;;;;;4950312;28;20063;-63
2022/08/15 05:50:27;;;;;;;3.25;2.95;;;20.60;73.30;;;;;;4950276;28;20024;-64
2022/08/15 05:53:20;;;;;;;4.10;3.20;;;20.50;72.90;;;;;;4949934;28;20050;-63
2022/08/15 05:55:55;;;;;;;3.50;3.20;;;20.50;72.80;;;;;;4952178;28;20558;-64
2022/08/15 05:58:35;;;;;;;3.28;3.00;;;20.50;72.00;;;;;;4950191;28;20487;-63
2022/08/15 06:01:16;;;;;;;3.95;3.20;;;20.50;71.40;;;;;;4948993;28;20133;-62
2022/08/15 06:03:47;;;;;;;5.05;3.50;;;20.50;72.30;;;;;;4950143;28;20041;-62
2022/08/15 06:06:18;;;;;;;3.85;3.45;;;20.50;72.00;;;;;;4949323;28;21998;-63
2022/08/15 06:08:49;;;;;;;3.53;3.22;;;20.40;72.10;;;;;;4951435;28;20051;-63
2022/08/15 06:11:21;;;;;;;3.45;3.15;;;20.40;72.20;;;;;;4946323;28;20038;-63
2022/08/15 06:14:06;;;;;;;4.70;3.30;;;20.40;72.20;;;;;;4951360;28;20043;-62
2022/08/15 06:16:40;;;;;;;5.63;3.17;;;20.40;73.20;;;;;;4949315;28;20114;-63
2022/08/15 06:19:16;;;;;;;;;;;20.40;72.60;;;;;;4950720;28;20406;-63
2022/08/15 06:21:53;;;;;;;3.95;2.97;;;20.50;72.70;;;;;;4950875;28;20290;-61
2022/08/15 06:24:40;;;;;;;3.97;3.00;;;20.50;73.00;;;;;;4953182;28;20591;-62
2022/08/15 06:27:09;;;;;;;2.78;2.58;;;20.50;72.50;;;;;;4950368;28;20035;-62
2022/08/15 06:29:57;;;;;;;5.10;2.88;;;20.50;72.30;;;;;;4950017;28;20057;-62
2022/08/15 06:32:41;;;;;;;3.25;2.95;;;20.50;74.20;;;;;;4946546;28;20141;-62
2022/08/15 06:35:28;;;;;;;3.05;2.75;;;20.60;72.60;;;;;;4949802;28;21403;-62
2022/08/15 06:38:25;;;;;;;3.15;2.85;;;20.60;72.60;;;;;;4953886;28;20106;-62
2022/08/15 06:40:56;;;;;;;5.60;2.95;;;20.70;73.90;;;;;;4951350;28;20408;-62
2022/08/15 06:43:22;;;;;;;4.20;2.95;;;20.70;72.40;;;;;;4951899;28;20102;-62
2022/08/15 06:45:50;;;;;;;3.30;3.00;;;20.80;72.80;;;;;;4950508;28;20039;-63
2022/08/15 06:48:20;;;;;;;3.70;3.03;;;20.90;73.20;;;;;;4948754;28;20169;-62
2022/08/15 06:50:50;;;;;;;4.03;2.88;;;20.90;73.10;;;;;;4947455;28;20076;-63
2022/08/15 06:53:26;;;;;;;3.08;2.72;;;21.00;73.00;;;;;;4951479;28;20050;-62
2022/08/15 06:56:13;;;;;;;2.60;2.40;;;21.10;72.90;;;;;;4953571;28;20027;-63
2022/08/15 06:58:57;;;;;;;3.58;2.60;;;21.10;72.10;;;;;;4955110;28;20039;-63
2022/08/15 07:01:34;;;;;;;2.85;2.28;;;21.20;72.80;;;;;;4951156;28;20057;-63
2022/08/15 07:04:18;;;;;;;2.88;2.50;;;21.30;72.50;;;;;;4951305;28;20034;-62
2022/08/15 07:07:00;;;;;;;4.10;2.55;;;21.40;72.10;;;;;;4951561;28;20047;-62
2022/08/15 07:09:35;;;;;;;2.70;2.22;;;21.40;72.00;;;;;;4942320;28;20054;-63
2022/08/15 07:12:14;;;;;;;;;;;21.50;71.40;;;;;;4935151;28;20038;-63
2022/08/15 07:14:55;;;;;;;5.75;2.30;;;21.60;71.80;;;;;;4941747;28;19922;-63
2022/08/15 07:17:33;;;;;;;4.10;2.33;;;21.60;71.50;;;;;;4946722;28;20050;-62
2022/08/15 07:19:58;;;;;;;5.38;2.72;;;21.60;70.70;;;;;;4951579;28;20038;-63
2022/08/15 07:22:24;;;;;;;3.25;2.20;;;21.70;70.50;;;;;;4954303;28;22367;-63
2022/08/15 07:24:55;;;;;;;3.35;2.47;;;21.70;70.60;;;;;;4951285;28;20376;-62
2022/08/15 07:27:31;;;;;;;3.72;2.17;;;21.80;71.00;;;;;;4951658;28;20035;-63
2022/08/15 07:30:06;;;;;;;2.20;1.98;;;21.80;70.00;;;;;;4954485;28;20064;-63
2022/08/15 07:32:41;;;;;;;3.42;2.38;;;21.90;69.70;;;;;;4950193;28;20373;-62
2022/08/15 07:35:19;;;;;;;3.00;2.10;;;22.00;69.50;;;;;;4952249;28;20462;-63
2022/08/15 07:37:48;;;;;;;4.45;2.20;;;22.10;69.20;;;;;;4950893;28;20303;-63
2022/08/15 07:40:26;;;;;;;3.28;2.10;;;22.10;68.70;;;;;;4947960;28;20035;-63
2022/08/15 07:42:52;;;;;;;2.08;1.98;;;22.20;68.50;;;;;;4954949;28;20070;-62
2022/08/15 07:45:25;;;;;;;2.30;2.10;;;22.20;68.10;;;;;;4954425;28;20178;-63
2022/08/15 07:48:24;;;;;;;2.30;2.10;;;22.20;68.10;;;;;;4958186;28;20039;-62
2022/08/15 07:51:03;;;;;;;5.22;2.80;;;22.30;68.50;;;;;;4947483;28;20708;-63
2022/08/15 07:53:30;;;;;;;3.00;2.10;;;22.40;68.40;;;;;;4942645;28;20471;-63
2022/08/15 07:56:13;;;;;;;2.50;2.30;;;22.40;67.90;;;;;;4948805;28;20126;-62
2022/08/15 07:58:41;;;;;;;6.97;2.13;;;22.50;68.10;;;;;;4945134;28;20042;-63
2022/08/15 08:01:26;;;;;;;3.08;2.30;;;22.60;67.60;;;;;;4944413;28;20094;-63
2022/08/15 08:03:55;;;;;;;;;;;22.70;67.30;;;;;;4948501;28;20046;-64
2022/08/15 08:06:36;;;;;;;2.20;2.00;;;22.70;66.90;;;;;;4949329;28;20437;-64
2022/08/15 08:09:16;;;;;;;2.28;2.08;;;22.80;66.70;;;;;;4946058;28;20096;-64
2022/08/15 08:11:50;;;;;;;1.85;1.75;;;22.90;67.10;;;;;;4947009;28;20034;-63
2022/08/15 08:14:30;;;;;;;3.17;2.30;;;22.90;66.70;;;;;;4950798;28;20042;-63
2022/08/15 08:17:03;;;;;;;3.42;2.10;;;23.00;66.90;;;;;;4950885;28;20535;-63
2022/08/15 08:19:51;;;;;;;2.58;2.38;;;23.10;65.70;;;;;;4954545;28;20074;-63
2022/08/15 08:22:30;;;;;;;3.78;1.77;;;23.10;64.90;;;;;;4955268;28;20039;-63
2022/08/15 08:25:06;;;;;;;2.58;1.90;;;23.20;64.40;;;;;;4956430;28;20046;-63
2022/08/15 08:27:41;;;;;;;3.22;1.75;;;23.20;64.30;;;;;;4956500;28;20028;-64
2022/08/15 08:30:09;;;;;;;;;;;23.30;63.90;;;;;;4954660;28;20150;-63
2022/08/15 08:32:56;;;;;;;2.65;1.67;;;23.40;63.90;;;;;;4951680;28;20005;-62
2022/08/15 08:35:22;;;;;;;2.28;1.80;;;23.40;62.70;;;;;;4955316;28;20037;-64
2022/08/15 08:38:16;;;;;;;2.42;1.88;;;23.50;62.60;;;;;;4956331;28;20027;-65
2022/08/15 08:43:40;;;;;;;3.70;2.00;;;23.50;62.30;;;;;;4956832;28;20034;-64
2022/08/15 08:46:42;;;;;;;2.03;1.80;;;23.60;62.10;;;;;;4954679;28;20514;-64
2022/08/15 08:49:30;;;;;;;3.47;1.95;;;23.60;62.20;;;;;;4955991;28;20047;-64
2022/08/15 08:52:22;;;;;;;3.97;1.70;;;23.60;61.90;;;;;;4956565;28;20035;-64
2022/08/15 08:55:02;;;;;;;2.40;1.60;;;23.70;61.30;;;;;;4956836;28;20135;-64
2022/08/15 08:57:50;;;;;;;2.30;1.65;;;23.80;60.50;;;;;;4957834;28;20570;-64
2022/08/15 09:00:22;;;;;;;2.65;1.90;;;23.80;60.30;;;;;;4955017;28;20521;-64
2022/08/15 09:02:51;;;;;;;2.65;1.83;;;24.00;60.90;;;;;;4955223;28;20042;-64
2022/08/15 09:05:29;;;;;;;1.92;1.70;;;24.00;60.40;;;;;;4955734;28;20031;-64
2022/08/15 09:08:00;;;;;;;3.22;1.88;;;24.10;59.70;;;;;;4956903;28;20046;-64
2022/08/15 09:10:32;;;;;;;1.70;1.58;;;24.10;59.40;;;;;;4949987;28;20511;-65
2022/08/15 09:15:47;;;;;;;2.08;1.70;;;24.30;59.20;;;;;;4955973;28;20037;-64
2022/08/15 09:18:23;;;;;;;2.28;1.75;;;24.40;59.00;;;;;;4954887;28;20373;-63
2022/08/15 09:20:49;;;;;;;2.78;1.95;;;24.40;58.20;;;;;;4947337;28;21013;-64
2022/08/15 09:23:15;;;;;;;2.63;1.90;;;24.50;58.30;;;;;;4952598;28;20038;-64
2022/08/15 09:25:57;;;;;;;2.25;1.65;;;24.60;58.20;;;;;;4951074;28;20045;-64
2022/08/15 09:28:29;;;;;;;3.53;2.05;;;24.60;57.80;;;;;;4953410;28;20046;-64
2022/08/15 09:30:58;;;;;;;2.85;1.80;;;24.70;57.30;;;;;;4949332;28;20089;-64
2022/08/15 09:34:01;;;;;;;1.88;1.70;;;24.70;57.70;;;;;;4950175;28;20043;-65
2022/08/15 09:36:55;;;;;;;5.93;2.00;;;24.70;57.10;;;;;;4953445;28;21458;-64
2022/08/15 09:39:54;;;;;;;2.05;1.85;;;24.80;57.00;;;;;;4949721;28;20035;-65
2022/08/15 09:42:23;;;;;;;2.28;2.05;;;24.90;56.80;;;;;;4952206;28;20530;-64
2022/08/15 09:45:18;;;;;;;4.18;1.80;;;25.00;57.50;;;;;;4951479;28;20050;-64
2022/08/15 09:48:03;;;;;;;2.70;1.98;;;25.10;57.10;;;;;;4953924;28;20035;-63
2022/08/15 09:50:58;;;;;;;1.70;1.60;;;25.20;56.60;;;;;;4948730;28;20035;-64
2022/08/15 09:53:53;;;;;;;2.35;1.55;;;25.20;55.90;;;;;;4883443;28;20032;-64
2022/08/15 09:56:21;;;;;;;3.30;1.80;;;25.30;55.20;;;;;;4953097;28;20042;-65
2022/08/15 09:59:01;;;;;;;2.78;1.45;;;25.30;55.80;;;;;;4949359;28;20495;-63
2022/08/15 10:01:29;;;;;;;2.78;1.60;;;25.30;55.90;;;;;;4953179;28;20039;-65
2022/08/15 10:03:56;;;;;;;1.55;1.45;;;25.30;55.50;;;;;;4952245;28;20615;-65
2022/08/15 10:06:28;;;;;;;1.60;1.48;;;25.40;55.70;;;;;;4951248;28;20074;-65
2022/08/15 10:08:53;;;;;;;1.67;1.58;;;25.50;55.80;;;;;;4952710;28;20444;-65
2022/08/15 10:11:31;;;;;;;1.90;1.70;;;25.50;55.70;;;;;;4944618;28;20130;-64
2022/08/15 10:14:06;;;;;;;1.55;1.45;;;25.60;55.00;;;;;;4947499;28;20043;-63
2022/08/15 10:16:40;;;;;;;2.67;1.70;;;25.70;55.20;;;;;;4953239;28;20042;-65
2022/08/15 10:19:08;;;;;;;4.45;1.60;;;25.80;54.60;;;;;;4955597;28;20118;-64
2022/08/15 10:21:40;;;;;;;4.85;1.70;;;25.80;55.00;;;;;;4952395;28;20050;-64
2022/08/15 10:24:24;;;;;;;1.75;1.35;;;25.90;54.70;;;;;;4955796;28;20066;-65
2022/08/15 10:27:07;;;;;;;1.70;1.27;;;26.00;54.90;;;;;;4952940;28;20125;-65
2022/08/15 10:29:34;;;;;;;1.98;1.40;;;26.00;54.30;;;;;;4954707;28;20122;-64
2022/08/15 10:32:01;;;;;;;3.10;1.50;;;26.00;53.70;;;;;;4954116;28;20082;-63
2022/08/15 10:34:52;;;;;;;2.38;1.65;;;26.00;53.50;;;;;;4951106;28;20039;-64
2022/08/15 10:37:37;;;;;;;2.47;1.60;;;26.10;53.30;;;;;;4954561;28;20042;-64
2022/08/15 10:40:34;;;;;;;1.55;1.42;;;26.10;53.80;;;;;;4955585;28;20035;-64
2022/08/15 10:43:38;;;;;;;1.95;1.60;;;26.10;52.80;;;;;;4953323;28;20035;-64
2022/08/15 10:46:29;;;;;;;2.03;1.35;;;26.20;52.10;;;;;;4952597;28;20050;-64
2022/08/15 10:49:19;;;;;;;1.42;1.30;;;26.30;52.20;;;;;;4954394;28;20035;-65
2022/08/15 10:52:01;;;;;;;2.67;1.77;;;26.40;52.50;;;;;;4953739;28;20094;-64
2022/08/15 10:54:50;;;;;;;1.85;1.50;;;26.40;52.40;;;;;;4949189;28;20526;-64
2022/08/15 10:57:20;;;;;;;1.92;1.70;;;26.50;51.90;;;;;;4952965;28;20126;-63
2022/08/15 10:59:50;;;;;;;2.85;1.48;;;26.60;52.20;;;;;;4954118;28;20038;-64
2022/08/15 11:02:26;;;;;;;2.28;1.38;;;26.70;51.80;;;;;;4950341;28;20026;-64
2022/08/15 11:05:19;;;;;;;1.40;1.30;;;26.70;51.90;;;;;;4949441;28;20078;-64
2022/08/15 11:07:51;;;;;;;4.07;1.33;;;26.80;51.60;;;;;;4954079;28;20035;-65
2022/08/15 11:10:20;;;;;;;2.13;1.40;;;26.90;51.50;;;;;;4950550;28;20097;-63
2022/08/15 11:12:49;;;;;;;7.03;1.60;;;26.90;51.90;;;;;;4946520;28;20121;-65
2022/08/15 11:15:30;;;;;;;2.03;1.60;;;27.10;50.60;;;;;;4954120;28;20127;-61
2022/08/15 11:18:04;;;;;;;2.20;1.70;;;27.10;49.00;;;;;;4952745;28;20041;-65
2022/08/15 11:20:49;;;;;;;2.53;1.77;;;27.20;49.80;;;;;;4953079;28;20058;-65
2022/08/15 11:23:36;;;;;;;1.55;1.30;;;27.20;49.60;;;;;;4953491;28;20506;-64
2022/08/15 11:26:04;;;;;;;2.40;1.60;;;27.30;49.30;;;;;;4951763;28;20050;-64
2022/08/15 11:28:30;;;;;;;2.10;1.88;;;27.30;49.30;;;;;;4951726;28;20503;-64
2022/08/15 11:31:11;;;;;;;1.85;1.67;;;27.40;49.30;;;;;;4936375;28;20047;-66
2022/08/15 11:33:46;;;;;;;1.65;1.52;;;27.40;48.30;;;;;;4951144;28;20141;-66
2022/08/15 11:36:18;;;;;;;;;;;27.40;48.50;;;;;;4954193;28;20035;-65
2022/08/15 11:39:00;;;;;;;2.13;1.80;;;27.50;49.10;;;;;;4953196;28;20043;-64
2022/08/15 11:41:29;;;;;;;3.08;1.50;;;27.50;48.70;;;;;;4952807;28;20062;-65
2022/08/15 11:43:58;;;;;;;3.08;1.67;;;27.60;48.80;;;;;;4953405;28;20130;-64
2022/08/15 11:46:25;;;;;;;4.38;1.67;;;27.70;48.70;;;;;;4952952;28;20051;-65
2022/08/15 11:49:13;;;;;;;3.20;1.63;;;27.70;48.00;;;;;;4952891;28;20517;-64
2022/08/15 11:51:43;;;;;;;6.72;1.73;;;27.80;47.00;;;;;;4954123;28;20047;-64
2022/08/15 11:54:11;;;;;;;1.58;1.48;;;27.80;47.60;;;;;;4952010;28;20102;-64
2022/08/15 11:56:56;;;;;;;3.20;1.73;;;27.90;47.40;;;;;;4953123;28;20035;-66
2022/08/15 11:59:23;;;;;;;2.05;1.83;;;27.90;47.30;;;;;;4955716;28;20027;-65
2022/08/15 12:02:03;;;;;;;1.50;1.35;;;28.00;47.40;;;;;;4951758;28;20038;-65
2022/08/15 12:04:33;;;;;;;2.47;1.65;;;28.00;46.60;;;;;;4956924;28;20046;-65
2022/08/15 12:07:13;;;;;;;1.85;1.45;;;28.10;47.20;;;;;;4957915;28;20035;-65
2022/08/15 12:09:48;;;;;;;2.78;1.58;;;28.10;46.60;;;;;;4956653;28;20530;-65
2022/08/15 12:12:52;;;;;;;1.50;1.40;;;28.20;47.00;;;;;;4952367;28;20106;-65
2022/08/15 12:15:39;;;;;;;1.67;1.50;;;28.20;45.00;;;;;;4952397;28;20062;-65
2022/08/15 12:18:13;;;;;;;1.50;1.40;;;28.30;45.60;;;;;;4956838;28;20106;-64
2022/08/15 12:21:04;;;;;;;1.42;1.33;;;28.40;45.40;;;;;;4956825;28;20039;-66
2022/08/15 12:23:30;;;;;;;1.80;1.45;;;28.40;45.20;;;;;;4957503;28;20426;-65
2022/08/15 12:26:06;;;;;;;2.08;1.50;;;28.40;45.60;;;;;;4956395;28;20039;-65
2022/08/15 12:28:34;;;;;;;3.03;1.75;;;28.40;45.30;;;;;;4956033;28;20055;-65
2022/08/15 12:31:17;;;;;;;4.25;1.60;;;28.50;45.00;;;;;;4954992;28;20042;-66
2022/08/15 12:33:44;;;;;;;1.48;1.38;;;28.50;44.80;;;;;;4955634;28;20039;-65
2022/08/15 12:36:11;;;;;;;3.65;1.75;;;28.50;45.00;;;;;;4956317;28;21313;-65
2022/08/15 12:38:37;;;;;;;5.20;1.70;;;28.60;44.60;;;;;;4943301;28;20118;-65
2022/08/15 12:41:03;;;;;;;4.90;1.63;;;28.60;44.60;;;;;;4954310;28;20122;-65
2022/08/15 12:43:29;;;;;;;1.95;1.50;;;28.60;44.10;;;;;;4943931;28;20490;-65
2022/08/15 12:45:55;;;;;;;2.22;1.50;;;28.60;43.80;;;;;;4952228;28;20336;-65
2022/08/15 12:48:27;;;;;;;3.58;1.60;;;28.70;44.00;;;;;;4957757;28;20472;-65
2022/08/15 12:50:54;;;;;;;1.60;1.50;;;28.70;43.80;;;;;;4953707;28;20055;-65
2022/08/15 12:53:20;;;;;;;3.97;1.67;;;28.80;43.70;;;;;;4957461;28;20487;-65
2022/08/15 12:55:47;;;;;;;2.03;1.50;;;28.70;43.80;;;;;;4954866;28;20516;-66
2022/08/15 12:58:18;;;;;;;1.77;1.38;;;28.70;43.20;;;;;;4955917;28;20121;-65
2022/08/15 13:00:46;;;;;;;1.65;1.40;;;28.70;43.50;;;;;;4951910;28;21655;-65
2022/08/15 13:03:21;;;;;;;1.65;1.50;;;28.70;43.50;;;;;;4955134;28;20388;-65
2022/08/15 13:05:52;;;;;;;1.63;1.50;;;28.70;42.70;;;;;;4954338;28;20028;-64
2022/08/15 13:08:18;;;;;;;1.52;1.35;;;28.70;42.70;;;;;;4955231;28;20479;-65
2022/08/15 13:10:43;;;;;;;1.70;1.50;;;28.70;44.00;;;;;;4950017;28;20118;-65
2022/08/15 13:13:11;;;;;;;1.65;1.55;;;28.70;43.20;;;;;;4955416;28;20499;-65
2022/08/15 13:15:37;;;;;;;1.52;1.42;;;28.70;42.80;;;;;;4953306;28;20066;-65
2022/08/15 13:18:04;;;;;;;2.28;1.60;;;28.70;43.20;;;;;;4955329;28;20102;-65
2022/08/15 13:25:59;;;;;;;2.10;1.75;;;28.80;43.40;;;;;;4952341;28;20304;-65
2022/08/15 13:28:25;;;;;;;1.45;1.33;;;28.90;43.30;;;;;;4955625;28;20065;-65
2022/08/15 13:30:51;;;;;;;1.90;1.48;;;28.90;43.00;;;;;;4952915;28;20039;-65
2022/08/15 13:33:18;;;;;;;2.47;1.80;;;28.90;42.80;;;;;;4955102;28;20146;-64